Time;durP1;ratioP1;P1;durP2;ratioP2;P2;SDS_P1;SDS_P2;PMS_P1;PMS_P2;Temp;Humidity;BMP_temperature;BMP_pressure;BME280_temperature;BME280_humidity;BME280_pressure;Samples;Min_cycle;Max_cycle;Signal;HPM_P1;HPM_P2
2021/06/26 00:02:16;;;;;;;6.20;4.68;;;19.70;71.50;;;;;;3559760;40;20029;-72
2021/06/26 00:04:44;;;;;;;6.65;4.65;;;19.60;71.50;;;;;;3571119;40;20032;-72
2021/06/26 00:07:09;;;;;;;5.43;4.93;;;19.50;71.90;;;;;;3573686;40;20037;-72
2021/06/26 00:09:35;;;;;;;5.72;4.60;;;19.40;72.40;;;;;;3574877;40;20032;-72
2021/06/26 00:12:01;;;;;;;5.72;4.60;;;19.40;72.60;;;;;;3576970;40;20102;-71
2021/06/26 00:14:27;;;;;;;6.05;4.50;;;19.40;72.70;;;;;;3563022;40;20083;-71
2021/06/26 00:16:53;;;;;;;5.22;4.30;;;19.30;73.20;;;;;;3570849;40;20126;-72
2021/06/26 00:19:19;;;;;;;6.22;4.82;;;19.10;73.10;;;;;;3575091;40;20286;-72
2021/06/26 00:21:45;;;;;;;5.25;4.75;;;19.10;73.10;;;;;;3574075;40;20032;-72
2021/06/26 00:24:10;;;;;;;5.07;4.57;;;19.10;73.20;;;;;;3574844;40;20033;-73
2021/06/26 00:26:36;;;;;;;5.15;4.45;;;19.00;73.10;;;;;;3574993;40;20036;-72
2021/06/26 00:29:03;;;;;;;6.70;4.60;;;19.00;73.10;;;;;;3576322;40;20029;-72
2021/06/26 00:31:28;;;;;;;6.70;4.85;;;19.00;73.20;;;;;;3577548;40;20020;-72
2021/06/26 00:33:54;;;;;;;5.65;4.35;;;18.90;73.30;;;;;;3569054;40;20101;-72
2021/06/26 00:36:20;;;;;;;5.82;4.70;;;18.90;73.20;;;;;;3577468;40;20047;-72
2021/06/26 00:38:45;;;;;;;5.40;4.43;;;18.80;73.20;;;;;;3575627;40;20114;-72
2021/06/26 00:41:11;;;;;;;5.45;4.40;;;18.80;73.40;;;;;;3574876;40;20814;-72
2021/06/26 00:43:37;;;;;;;5.78;4.22;;;18.70;73.60;;;;;;3574626;40;20037;-72
2021/06/26 00:46:02;;;;;;;5.78;4.93;;;18.70;74.00;;;;;;3575137;40;20040;-72
2021/06/26 00:48:28;;;;;;;5.93;4.90;;;18.70;74.40;;;;;;3579426;40;20425;-72
2021/06/26 00:50:54;;;;;;;5.20;4.72;;;18.60;74.60;;;;;;3580229;40;20040;-74
2021/06/26 00:53:20;;;;;;;5.55;4.95;;;18.60;74.80;;;;;;3578596;40;20056;-72
2021/06/26 00:55:52;;;;;;;5.20;4.70;;;18.50;75.20;;;;;;3577019;40;20024;-72
2021/06/26 00:58:23;;;;;;;4.72;4.20;;;18.50;75.50;;;;;;3575248;40;20044;-72
2021/06/26 01:00:51;;;;;;;7.03;4.97;;;18.40;75.80;;;;;;3573523;40;20130;-72
2021/06/26 01:03:17;;;;;;;5.38;4.88;;;18.40;75.90;;;;;;3572438;40;20429;-72
2021/06/26 01:05:43;;;;;;;7.90;5.00;;;18.40;76.00;;;;;;3570906;40;20033;-72
2021/06/26 01:08:09;;;;;;;5.97;4.97;;;18.30;76.30;;;;;;3570653;40;20025;-72
2021/06/26 01:10:34;;;;;;;6.13;5.22;;;18.20;76.50;;;;;;3571766;40;20033;-72
2021/06/26 01:13:00;;;;;;;6.72;5.28;;;18.20;76.70;;;;;;3573816;40;20865;-72
2021/06/26 01:15:26;;;;;;;8.18;5.70;;;18.10;77.00;;;;;;3574451;40;20047;-72
2021/06/26 01:17:53;;;;;;;7.22;5.63;;;18.10;77.20;;;;;;3576379;40;20051;-72
2021/06/26 01:20:20;;;;;;;6.20;4.97;;;18.10;77.40;;;;;;3577569;40;20032;-72
2021/06/26 01:22:47;;;;;;;7.22;5.50;;;18.00;77.50;;;;;;3579361;40;20602;-72
2021/06/26 01:25:16;;;;;;;7.40;5.93;;;17.90;77.70;;;;;;3578774;40;20052;-72
2021/06/26 01:27:43;;;;;;;6.10;4.85;;;17.90;78.00;;;;;;3577059;40;20044;-72
2021/06/26 01:30:10;;;;;;;5.97;5.30;;;17.80;78.30;;;;;;3575466;40;20029;-72
2021/06/26 01:32:37;;;;;;;6.68;5.88;;;17.80;78.40;;;;;;3574424;40;20056;-72
2021/06/26 01:35:04;;;;;;;6.82;6.13;;;17.70;78.40;;;;;;3576775;40;20033;-72
2021/06/26 01:37:30;;;;;;;6.88;6.10;;;17.60;78.60;;;;;;3568440;40;20150;-72
2021/06/26 01:39:56;;;;;;;7.18;6.25;;;17.60;78.70;;;;;;3577812;40;20888;-72
2021/06/26 01:42:21;;;;;;;7.05;6.13;;;17.50;79.00;;;;;;3571572;40;20037;-72
2021/06/26 01:44:47;;;;;;;6.60;5.88;;;17.50;79.50;;;;;;3571827;40;20033;-72
2021/06/26 01:47:13;;;;;;;7.65;6.50;;;17.40;80.10;;;;;;3574410;40;20031;-72
2021/06/26 01:49:39;;;;;;;7.60;6.80;;;17.30;80.50;;;;;;3564496;40;20088;-72
2021/06/26 01:52:09;;;;;;;7.13;6.43;;;17.30;80.90;;;;;;3571800;40;20029;-72
2021/06/26 01:54:35;;;;;;;7.20;6.50;;;17.30;81.30;;;;;;3578743;40;20044;-73
2021/06/26 01:57:01;;;;;;;9.52;7.03;;;17.30;81.30;;;;;;3561781;40;20073;-72
2021/06/26 01:59:27;;;;;;;7.55;6.45;;;17.30;81.40;;;;;;3573965;40;20040;-72
2021/06/26 02:01:52;;;;;;;7.90;5.90;;;17.30;81.40;;;;;;3573964;40;20049;-72
2021/06/26 02:04:18;;;;;;;6.85;6.18;;;17.30;81.20;;;;;;3566539;40;20029;-72
2021/06/26 02:06:44;;;;;;;7.40;6.15;;;17.30;81.10;;;;;;3576521;40;20389;-72
2021/06/26 02:09:10;;;;;;;8.80;6.30;;;17.30;80.80;;;;;;3575730;40;20033;-72
2021/06/26 02:11:36;;;;;;;7.57;6.68;;;17.20;80.80;;;;;;3575606;40;20107;-72
2021/06/26 02:14:02;;;;;;;8.70;6.57;;;17.20;81.00;;;;;;3572102;40;20033;-72
2021/06/26 02:16:27;;;;;;;7.85;6.43;;;17.10;80.90;;;;;;3579560;40;20027;-72
2021/06/26 02:18:53;;;;;;;7.15;6.40;;;17.00;80.80;;;;;;3574299;40;20036;-72
2021/06/26 02:21:19;;;;;;;7.32;6.25;;;17.00;81.40;;;;;;3575480;40;20052;-73
2021/06/26 02:23:45;;;;;;;6.22;5.63;;;16.90;82.10;;;;;;3576940;40;20078;-72
2021/06/26 02:26:11;;;;;;;7.82;6.63;;;16.90;82.50;;;;;;3578045;40;20414;-72
2021/06/26 02:28:37;;;;;;;7.03;6.05;;;16.90;82.30;;;;;;3570221;40;20122;-72
2021/06/26 02:31:03;;;;;;;6.95;6.05;;;16.90;82.20;;;;;;3576140;40;20067;-72
2021/06/26 02:33:28;;;;;;;8.95;7.30;;;16.90;82.30;;;;;;3568367;40;20536;-72
2021/06/26 02:35:54;;;;;;;10.05;7.25;;;17.00;82.80;;;;;;3577127;40;20032;-72
2021/06/26 02:38:20;;;;;;;8.13;7.15;;;16.90;83.00;;;;;;3576231;40;20134;-72
2021/06/26 02:40:46;;;;;;;7.82;6.72;;;17.00;83.30;;;;;;3578099;40;20037;-72
2021/06/26 02:43:11;;;;;;;7.43;6.63;;;17.00;83.40;;;;;;3577817;40;20013;-72
2021/06/26 02:45:37;;;;;;;7.45;6.63;;;17.00;83.10;;;;;;3570862;40;20040;-72
2021/06/26 02:48:03;;;;;;;7.07;6.30;;;17.00;82.40;;;;;;3575001;40;20033;-72
2021/06/26 02:50:29;;;;;;;7.00;6.30;;;17.00;82.20;;;;;;3578143;40;20141;-72
2021/06/26 02:52:55;;;;;;;7.90;6.55;;;17.00;82.10;;;;;;3567354;40;20021;-72
2021/06/26 02:55:20;;;;;;;7.75;6.30;;;16.90;82.90;;;;;;3577412;40;20037;-71
2021/06/26 02:57:46;;;;;;;8.25;6.95;;;16.90;82.70;;;;;;3573807;40;20072;-72
2021/06/26 03:00:12;;;;;;;10.25;7.35;;;16.90;83.30;;;;;;3573577;40;20103;-71
2021/06/26 03:02:40;;;;;;;7.80;6.97;;;16.90;83.70;;;;;;3570369;40;20044;-72
2021/06/26 03:05:06;;;;;;;7.18;6.43;;;16.90;84.10;;;;;;3570725;40;20052;-72
2021/06/26 03:07:32;;;;;;;7.28;5.93;;;16.90;82.90;;;;;;3572277;40;20636;-72
2021/06/26 03:09:58;;;;;;;7.80;6.55;;;16.90;82.70;;;;;;3575158;40;20118;-72
2021/06/26 03:12:23;;;;;;;6.80;6.07;;;16.90;82.60;;;;;;3573740;40;20445;-72
2021/06/26 03:14:49;;;;;;;7.43;6.60;;;16.90;82.40;;;;;;3574087;40;20031;-72
2021/06/26 03:17:14;;;;;;;7.20;6.43;;;16.90;82.00;;;;;;3573130;40;20032;-72
2021/06/26 03:19:40;;;;;;;7.05;5.90;;;16.90;81.20;;;;;;3570383;40;20077;-72
2021/06/26 03:22:06;;;;;;;6.78;6.00;;;16.90;80.90;;;;;;3574270;40;20029;-72
2021/06/26 03:24:32;;;;;;;7.07;6.38;;;16.80;80.90;;;;;;3573613;40;20125;-72
2021/06/26 03:26:58;;;;;;;6.82;5.50;;;16.70;80.70;;;;;;3573671;40;20036;-72
2021/06/26 03:29:24;;;;;;;7.70;6.60;;;16.70;81.30;;;;;;3575458;40;20028;-72
2021/06/26 03:31:51;;;;;;;7.47;5.88;;;16.60;82.90;;;;;;3575591;40;20095;-72
2021/06/26 03:34:16;;;;;;;8.10;7.10;;;16.70;82.90;;;;;;3578967;40;20697;-72
2021/06/26 03:36:42;;;;;;;9.25;8.15;;;16.70;83.70;;;;;;3566163;40;20037;-72
2021/06/26 03:39:08;;;;;;;8.68;7.45;;;16.70;84.50;;;;;;3572968;40;20402;-72
2021/06/26 03:41:34;;;;;;;9.00;7.15;;;16.80;84.70;;;;;;3572816;40;20398;-72
2021/06/26 03:44:01;;;;;;;7.97;7.18;;;16.80;84.80;;;;;;3564548;40;20052;-72
2021/06/26 03:46:28;;;;;;;7.85;6.78;;;16.80;84.20;;;;;;3576922;40;20813;-72
2021/06/26 03:48:54;;;;;;;7.90;7.05;;;16.90;83.90;;;;;;3565881;40;20024;-72
2021/06/26 03:51:20;;;;;;;6.97;6.13;;;17.00;84.20;;;;;;3568008;40;20572;-72
2021/06/26 03:53:47;;;;;;;7.05;6.35;;;17.00;83.00;;;;;;3570199;40;20051;-73
2021/06/26 03:56:13;;;;;;;6.75;6.15;;;17.00;82.30;;;;;;3573105;40;20035;-72
2021/06/26 03:58:39;;;;;;;7.20;6.35;;;17.10;81.60;;;;;;3575693;40;20037;-72
2021/06/26 04:01:05;;;;;;;6.70;5.95;;;17.10;81.20;;;;;;3573960;40;20028;-72
2021/06/26 04:03:30;;;;;;;8.77;6.45;;;17.20;80.70;;;;;;3573788;40;20064;-72
2021/06/26 04:05:56;;;;;;;7.15;6.13;;;17.30;80.80;;;;;;3571648;40;20056;-73
2021/06/26 04:08:22;;;;;;;7.28;6.22;;;17.30;81.20;;;;;;3560418;40;20379;-72
2021/06/26 04:10:48;;;;;;;7.70;6.93;;;17.40;82.00;;;;;;3570281;40;20049;-72
2021/06/26 04:13:14;;;;;;;7.13;6.43;;;17.60;82.20;;;;;;3562435;40;20033;-72
2021/06/26 04:15:39;;;;;;;7.90;6.25;;;17.70;81.00;;;;;;3574412;40;20711;-72
2021/06/26 04:18:06;;;;;;;6.93;5.90;;;17.70;79.90;;;;;;3574838;40;20605;-72
2021/06/26 04:20:32;;;;;;;6.93;6.20;;;17.80;79.90;;;;;;3564898;40;20369;-72
2021/06/26 04:22:57;;;;;;;7.45;5.85;;;17.90;80.10;;;;;;3572360;40;20032;-72
2021/06/26 04:25:23;;;;;;;7.75;6.07;;;18.00;80.60;;;;;;3574437;40;20021;-72
2021/06/26 04:27:49;;;;;;;6.75;6.03;;;18.00;80.30;;;;;;3577912;40;20043;-72
2021/06/26 04:30:15;;;;;;;8.68;6.07;;;18.10;79.80;;;;;;3575723;40;20028;-73
2021/06/26 04:32:42;;;;;;;6.80;6.10;;;18.10;79.20;;;;;;3568851;40;20409;-72
2021/06/26 04:35:11;;;;;;;6.60;6.00;;;18.10;78.30;;;;;;3575708;40;20095;-72
2021/06/26 04:37:36;;;;;;;6.15;5.47;;;18.10;78.20;;;;;;3576329;40;20023;-72
2021/06/26 04:40:03;;;;;;;8.82;6.15;;;18.10;78.70;;;;;;3578408;40;20021;-72
2021/06/26 04:42:29;;;;;;;7.13;6.43;;;18.10;79.00;;;;;;3579455;40;20036;-72
2021/06/26 04:44:55;;;;;;;9.85;7.70;;;18.10;79.50;;;;;;3579054;40;20478;-72
2021/06/26 04:47:21;;;;;;;8.45;7.05;;;18.10;80.30;;;;;;3576759;40;20755;-72
2021/06/26 04:49:47;;;;;;;6.43;5.82;;;18.10;79.90;;;;;;3578384;40;20040;-73
2021/06/26 04:52:12;;;;;;;7.28;6.25;;;18.20;80.00;;;;;;3577332;40;20033;-73
2021/06/26 04:54:38;;;;;;;7.88;7.07;;;18.30;80.20;;;;;;3576941;40;20025;-72
2021/06/26 04:57:04;;;;;;;7.38;6.43;;;18.30;80.20;;;;;;3576714;40;20047;-72
2021/06/26 04:59:30;;;;;;;7.28;6.57;;;18.50;80.00;;;;;;3573397;40;20119;-72
2021/06/26 05:01:55;;;;;;;8.13;6.78;;;18.60;79.50;;;;;;3572128;40;20041;-72
2021/06/26 05:04:21;;;;;;;7.68;6.93;;;18.80;79.00;;;;;;3574424;40;20020;-72
2021/06/26 05:06:48;;;;;;;8.63;6.78;;;18.90;78.50;;;;;;3574223;40;20782;-73
2021/06/26 05:09:13;;;;;;;8.05;6.70;;;19.00;78.10;;;;;;3575630;40;20037;-72
2021/06/26 05:11:40;;;;;;;6.63;6.00;;;19.10;77.80;;;;;;3573437;40;20051;-72
2021/06/26 05:14:05;;;;;;;8.20;7.45;;;19.20;77.80;;;;;;3574279;40;20137;-72
2021/06/26 05:16:31;;;;;;;7.90;7.05;;;19.20;77.50;;;;;;3579342;40;20088;-72
2021/06/26 05:18:57;;;;;;;12.25;7.25;;;19.30;77.30;;;;;;3577210;40;20033;-72
2021/06/26 05:21:23;;;;;;;7.90;6.65;;;19.40;77.50;;;;;;3576806;40;20080;-72
2021/06/26 05:23:49;;;;;;;8.10;7.30;;;19.50;77.30;;;;;;3574916;40;20353;-72
2021/06/26 05:26:15;;;;;;;10.70;7.72;;;19.50;77.20;;;;;;3573471;40;20041;-73
2021/06/26 05:28:40;;;;;;;8.80;7.90;;;19.60;77.00;;;;;;3563080;40;20453;-72
2021/06/26 05:31:06;;;;;;;10.77;8.60;;;19.70;75.40;;;;;;3571251;40;20032;-72
2021/06/26 05:33:32;;;;;;;13.77;7.65;;;19.70;74.70;;;;;;3577274;40;20029;-72
2021/06/26 05:35:58;;;;;;;11.82;7.07;;;19.80;74.60;;;;;;3563832;40;20032;-72
2021/06/26 05:38:24;;;;;;;7.20;6.47;;;19.90;75.10;;;;;;3575466;40;20114;-72
2021/06/26 05:40:50;;;;;;;7.30;6.45;;;20.10;74.40;;;;;;3577422;40;20036;-72
2021/06/26 05:43:16;;;;;;;9.15;7.20;;;20.20;74.60;;;;;;3572724;40;20028;-72
2021/06/26 05:45:42;;;;;;;8.35;6.88;;;20.40;73.70;;;;;;3576278;40;20021;-72
2021/06/26 05:48:08;;;;;;;7.35;6.50;;;20.40;73.10;;;;;;3577222;40;20040;-72
2021/06/26 05:50:34;;;;;;;8.70;7.47;;;20.50;72.30;;;;;;3578737;40;20896;-73
2021/06/26 05:53:00;;;;;;;8.43;7.22;;;20.60;72.20;;;;;;3577516;40;20028;-72
2021/06/26 05:55:27;;;;;;;7.32;6.55;;;20.60;72.20;;;;;;3575326;40;20115;-72
2021/06/26 05:57:53;;;;;;;8.60;7.05;;;20.70;72.10;;;;;;3575184;40;20097;-72
2021/06/26 06:00:20;;;;;;;7.70;6.90;;;20.80;71.20;;;;;;3576256;40;20033;-72
2021/06/26 06:02:49;;;;;;;7.50;6.80;;;20.90;71.70;;;;;;3577891;40;20141;-73
2021/06/26 06:05:16;;;;;;;7.65;6.70;;;21.10;69.90;;;;;;3579313;40;20673;-72
2021/06/26 06:07:43;;;;;;;7.25;6.30;;;21.30;69.20;;;;;;3577917;40;20040;-72
2021/06/26 06:10:11;;;;;;;6.60;5.90;;;21.50;67.50;;;;;;3576847;40;20040;-73
2021/06/26 06:12:38;;;;;;;8.50;6.68;;;21.70;66.30;;;;;;3576064;40;20052;-73
2021/06/26 06:15:07;;;;;;;9.73;5.97;;;21.90;65.40;;;;;;3575911;40;20036;-73
2021/06/26 06:17:33;;;;;;;6.63;5.90;;;22.00;65.30;;;;;;3576302;40;20033;-73
2021/06/26 06:19:58;;;;;;;6.05;5.28;;;22.10;64.00;;;;;;3568593;40;20036;-73
2021/06/26 06:22:24;;;;;;;6.35;5.35;;;22.20;63.70;;;;;;3578710;40;20677;-73
2021/06/26 06:24:51;;;;;;;6.20;5.55;;;22.30;63.60;;;;;;3574974;40;20028;-72
2021/06/26 06:27:17;;;;;;;6.03;5.43;;;22.30;63.30;;;;;;3557663;40;20033;-73
2021/06/26 06:29:42;;;;;;;7.05;5.95;;;22.30;63.10;;;;;;3575855;40;20422;-72
2021/06/26 06:32:08;;;;;;;5.97;5.38;;;22.30;63.70;;;;;;3575043;40;20052;-73
2021/06/26 06:34:34;;;;;;;6.22;5.35;;;22.20;63.60;;;;;;3576016;40;20032;-72
2021/06/26 06:37:00;;;;;;;5.95;5.35;;;22.20;63.50;;;;;;3572784;40;20072;-73
2021/06/26 06:39:26;;;;;;;7.35;5.05;;;22.20;63.60;;;;;;3579383;40;20044;-72
2021/06/26 06:41:52;;;;;;;4.65;4.25;;;22.20;64.20;;;;;;3578368;40;20035;-72
2021/06/26 06:44:18;;;;;;;4.78;4.38;;;22.20;63.00;;;;;;3567576;40;20043;-73
2021/06/26 06:46:44;;;;;;;5.30;4.80;;;22.30;62.70;;;;;;3576690;40;20044;-72
2021/06/26 06:49:10;;;;;;;5.13;4.53;;;22.30;62.70;;;;;;3574901;40;20037;-72
2021/06/26 06:51:36;;;;;;;5.38;4.88;;;22.40;63.10;;;;;;3572313;40;20052;-72
2021/06/26 06:54:03;;;;;;;8.85;5.20;;;22.50;62.80;;;;;;3571500;40;20037;-72
2021/06/26 06:56:28;;;;;;;4.60;4.20;;;22.60;60.90;;;;;;3573017;40;20729;-73
2021/06/26 06:58:54;;;;;;;5.70;4.30;;;22.60;61.10;;;;;;3578170;40;20035;-72
2021/06/26 07:01:20;;;;;;;5.70;3.85;;;22.60;61.10;;;;;;3577282;40;20811;-72
2021/06/26 07:03:46;;;;;;;6.82;4.15;;;22.70;60.40;;;;;;3577031;40;20037;-72
2021/06/26 07:06:12;;;;;;;4.60;4.20;;;22.90;60.20;;;;;;3577348;40;20044;-72
2021/06/26 07:08:37;;;;;;;4.10;3.67;;;22.90;59.20;;;;;;3574769;40;20130;-72
2021/06/26 07:11:03;;;;;;;4.63;4.07;;;23.00;58.60;;;;;;3571950;40;20036;-72
2021/06/26 07:13:29;;;;;;;6.10;3.97;;;23.10;58.20;;;;;;3579410;40;20040;-72
2021/06/26 07:15:54;;;;;;;4.32;3.45;;;23.20;58.00;;;;;;3577326;40;20044;-73
2021/06/26 07:18:21;;;;;;;4.65;3.88;;;23.30;58.40;;;;;;3575562;40;20463;-72
2021/06/26 07:20:47;;;;;;;5.53;3.97;;;23.40;56.20;;;;;;3576203;40;20036;-73
2021/06/26 07:23:13;;;;;;;3.72;3.38;;;23.50;56.20;;;;;;3575442;40;20032;-72
2021/06/26 07:25:38;;;;;;;4.10;3.65;;;23.50;56.40;;;;;;3570192;40;20100;-73
2021/06/26 07:28:04;;;;;;;7.75;3.20;;;23.60;54.00;;;;;;3574158;40;20028;-72
2021/06/26 07:30:31;;;;;;;4.72;3.70;;;23.60;54.70;;;;;;3578739;40;20649;-72
2021/06/26 07:32:57;;;;;;;3.80;3.50;;;23.70;53.30;;;;;;3577428;40;20024;-72
2021/06/26 07:35:23;;;;;;;4.07;3.78;;;23.70;54.30;;;;;;3576404;40;20039;-72
2021/06/26 07:37:49;;;;;;;5.80;4.90;;;23.80;54.30;;;;;;3573598;40;20025;-72
2021/06/26 07:40:15;;;;;;;6.93;4.32;;;23.90;52.50;;;;;;3562572;40;20021;-72
2021/06/26 07:42:42;;;;;;;4.95;3.47;;;23.90;52.20;;;;;;3572500;40;20028;-72
2021/06/26 07:45:08;;;;;;;6.50;4.45;;;23.90;52.60;;;;;;3573897;40;20125;-71
2021/06/26 07:47:35;;;;;;;5.22;3.85;;;24.00;52.70;;;;;;3576530;40;20036;-73
2021/06/26 07:50:02;;;;;;;6.00;3.58;;;24.00;51.40;;;;;;3565713;40;20033;-73
2021/06/26 07:52:28;;;;;;;4.38;3.22;;;24.00;52.10;;;;;;3576368;40;20041;-73
2021/06/26 07:54:54;;;;;;;7.32;4.93;;;24.10;52.70;;;;;;3574392;40;20039;-73
2021/06/26 07:57:19;;;;;;;4.10;3.70;;;24.10;49.90;;;;;;3577578;40;20072;-73
2021/06/26 07:59:45;;;;;;;4.57;3.38;;;24.00;50.50;;;;;;3574956;40;20056;-73
2021/06/26 08:02:11;;;;;;;3.63;3.30;;;23.90;51.50;;;;;;3572634;40;20532;-73
2021/06/26 08:04:36;;;;;;;4.22;3.55;;;23.90;52.20;;;;;;3574654;40;20032;-74
2021/06/26 08:07:02;;;;;;;5.10;3.42;;;23.90;52.70;;;;;;3572897;40;20041;-73
2021/06/26 08:09:28;;;;;;;7.05;3.63;;;24.10;51.10;;;;;;3573623;40;20034;-73
2021/06/26 08:11:54;;;;;;;5.45;3.55;;;24.10;49.50;;;;;;3564018;40;20473;-73
2021/06/26 08:14:20;;;;;;;5.78;3.70;;;24.30;49.80;;;;;;3572310;40;20138;-73
2021/06/26 08:16:46;;;;;;;5.97;3.80;;;24.40;48.60;;;;;;3576318;40;20274;-73
2021/06/26 08:19:12;;;;;;;4.22;3.80;;;24.60;47.60;;;;;;3567483;40;20044;-73
2021/06/26 08:21:38;;;;;;;4.63;3.53;;;24.70;47.20;;;;;;3575359;40;20800;-73
2021/06/26 08:24:04;;;;;;;4.43;3.60;;;24.80;46.70;;;;;;3567751;40;20024;-73
2021/06/26 08:26:30;;;;;;;4.65;3.08;;;24.70;46.70;;;;;;3575889;40;20033;-73
2021/06/26 08:28:56;;;;;;;4.43;3.38;;;24.60;46.70;;;;;;3576069;40;20024;-73
2021/06/26 08:31:22;;;;;;;3.53;3.22;;;24.40;47.00;;;;;;3570507;40;20031;-72
2021/06/26 08:33:47;;;;;;;4.57;4.18;;;24.30;48.60;;;;;;3574402;40;20025;-72
2021/06/26 08:36:13;;;;;;;5.45;3.92;;;24.30;47.80;;;;;;3573869;40;20033;-72
2021/06/26 08:38:39;;;;;;;4.30;3.90;;;24.40;47.50;;;;;;3574035;40;20048;-73
2021/06/26 08:41:06;;;;;;;4.18;3.78;;;24.60;47.00;;;;;;3573025;40;20021;-72
2021/06/26 08:43:33;;;;;;;5.70;3.85;;;24.70;47.20;;;;;;3575883;40;20028;-73
2021/06/26 08:46:00;;;;;;;3.70;3.40;;;24.80;46.60;;;;;;3575312;40;20044;-72
2021/06/26 08:48:27;;;;;;;3.72;3.30;;;24.90;46.40;;;;;;3568305;40;20448;-72
2021/06/26 08:50:53;;;;;;;3.60;3.30;;;25.00;46.00;;;;;;3568998;40;20021;-73
2021/06/26 08:53:19;;;;;;;5.10;3.38;;;25.00;46.10;;;;;;3571594;40;20198;-73
2021/06/26 08:55:44;;;;;;;6.40;4.28;;;25.00;46.50;;;;;;3573935;40;20033;-73
2021/06/26 08:58:11;;;;;;;6.82;4.35;;;25.00;46.70;;;;;;3575264;40;20028;-73
2021/06/26 09:00:37;;;;;;;4.47;3.70;;;25.10;45.70;;;;;;3573365;40;20379;-72
2021/06/26 09:03:11;;;;;;;3.83;3.40;;;25.10;45.20;;;;;;3574369;40;20767;-72
2021/06/26 09:05:38;;;;;;;5.22;3.45;;;25.20;46.70;;;;;;3573958;40;20724;-74
2021/06/26 09:08:21;;;;;;;3.90;3.00;;;25.40;45.80;;;;;;3576372;40;20068;-73
2021/06/26 09:10:51;;;;;;;4.72;3.25;;;25.60;45.90;;;;;;3573083;40;20307;-73
2021/06/26 09:13:23;;;;;;;6.10;3.10;;;25.70;45.20;;;;;;3574811;40;20037;-73
2021/06/26 09:16:11;;;;;;;3.85;3.28;;;25.80;44.00;;;;;;3579055;40;20020;-73
2021/06/26 09:18:46;;;;;;;4.18;3.72;;;25.80;43.70;;;;;;3578723;40;20041;-72
2021/06/26 09:21:32;;;;;;;3.88;3.13;;;25.80;42.90;;;;;;3578638;40;20358;-73
2021/06/26 09:24:07;;;;;;;5.57;2.92;;;25.80;42.70;;;;;;3578762;40;20307;-73
2021/06/26 09:26:35;;;;;;;4.78;3.20;;;25.90;42.00;;;;;;3577513;40;20066;-73
2021/06/26 09:29:08;;;;;;;3.85;3.50;;;26.10;41.90;;;;;;3574049;40;20040;-73
2021/06/26 09:31:34;;;;;;;3.25;2.95;;;26.30;42.00;;;;;;3573389;40;20310;-73
2021/06/26 09:34:00;;;;;;;4.10;3.28;;;26.40;42.00;;;;;;3564841;40;20099;-73
2021/06/26 09:36:32;;;;;;;3.70;3.40;;;26.50;42.00;;;;;;3572723;40;20041;-73
2021/06/26 09:39:01;;;;;;;3.45;2.75;;;26.50;42.50;;;;;;3577993;40;20072;-73
2021/06/26 09:41:28;;;;;;;4.35;2.90;;;26.40;43.40;;;;;;3579118;40;20126;-73
2021/06/26 09:43:54;;;;;;;5.60;3.25;;;26.30;43.20;;;;;;3578481;40;20234;-74
2021/06/26 09:46:21;;;;;;;3.65;2.70;;;26.20;43.80;;;;;;3566022;40;20109;-74
2021/06/26 09:48:59;;;;;;;4.68;3.22;;;26.10;42.70;;;;;;3574559;40;20414;-72
2021/06/26 09:51:25;;;;;;;3.08;2.85;;;25.80;44.60;;;;;;3574737;40;20099;-74
2021/06/26 09:54:01;;;;;;;3.70;2.90;;;25.60;44.30;;;;;;3574525;40;20048;-75
2021/06/26 09:56:47;;;;;;;3.50;3.20;;;25.50;43.20;;;;;;3568850;40;20708;-73
2021/06/26 09:59:17;;;;;;;4.90;3.50;;;25.60;42.00;;;;;;3577086;40;20069;-75
2021/06/26 10:01:45;;;;;;;3.53;2.70;;;25.70;42.10;;;;;;3565442;40;20028;-75
2021/06/26 10:04:13;;;;;;;3.60;2.70;;;25.70;40.10;;;;;;3574814;40;20021;-75
2021/06/26 10:06:41;;;;;;;3.95;3.08;;;25.70;40.00;;;;;;3576575;40;20029;-75
2021/06/26 10:09:07;;;;;;;6.75;4.22;;;25.90;41.40;;;;;;3568504;40;20039;-75
2021/06/26 10:11:35;;;;;;;4.50;4.10;;;26.00;40.70;;;;;;3577071;40;20021;-75
2021/06/26 10:14:04;;;;;;;3.28;2.97;;;26.10;41.00;;;;;;3579936;40;20040;-75
2021/06/26 10:16:30;;;;;;;4.53;3.92;;;26.10;40.80;;;;;;3575873;40;20040;-75
2021/06/26 10:19:01;;;;;;;4.40;4.00;;;26.20;40.90;;;;;;3574938;40;20036;-75
2021/06/26 10:21:28;;;;;;;5.00;2.92;;;26.30;40.70;;;;;;3576690;40;20640;-75
2021/06/26 10:23:59;;;;;;;4.30;2.47;;;26.40;40.70;;;;;;3577004;40;20053;-75
2021/06/26 10:26:26;;;;;;;3.53;2.25;;;26.60;38.80;;;;;;3577977;40;20037;-76
2021/06/26 10:28:59;;;;;;;4.53;2.40;;;26.80;38.60;;;;;;3570413;40;20040;-75
2021/06/26 10:31:34;;;;;;;3.65;2.10;;;26.90;38.90;;;;;;3580428;40;20036;-74
2021/06/26 10:34:16;;;;;;;2.63;2.42;;;26.90;38.70;;;;;;3564883;40;20064;-75
2021/06/26 10:36:50;;;;;;;2.35;2.15;;;27.00;36.70;;;;;;3569198;40;20149;-75
2021/06/26 10:39:34;;;;;;;2.47;2.27;;;27.00;36.60;;;;;;3576502;40;20033;-75
2021/06/26 10:42:08;;;;;;;4.75;2.80;;;27.00;36.90;;;;;;3578767;40;20480;-75
2021/06/26 10:44:51;;;;;;;4.63;2.63;;;27.00;37.40;;;;;;3576767;40;20040;-74
2021/06/26 10:47:32;;;;;;;3.65;2.90;;;27.00;37.80;;;;;;3580355;40;20811;-74
2021/06/26 10:50:15;;;;;;;2.53;2.25;;;26.90;37.50;;;;;;3577236;40;20123;-73
2021/06/26 10:52:56;;;;;;;3.40;2.22;;;26.90;35.90;;;;;;3571912;40;20121;-74
2021/06/26 10:55:30;;;;;;;2.38;1.92;;;27.20;35.70;;;;;;3566633;40;20397;-72
2021/06/26 10:57:57;;;;;;;2.80;1.85;;;27.80;34.30;;;;;;3575827;40;20122;-73
2021/06/26 11:00:41;;;;;;;1.85;1.70;;;27.90;33.70;;;;;;3573506;40;20040;-71
2021/06/26 11:03:20;;;;;;;1.75;1.58;;;27.60;34.00;;;;;;3571675;40;20049;-71
2021/06/26 11:05:46;;;;;;;3.03;2.03;;;27.50;35.00;;;;;;3569469;40;20187;-70
2021/06/26 11:08:20;;;;;;;2.10;1.90;;;27.40;34.50;;;;;;3573481;40;20048;-70
2021/06/26 11:11:00;;;;;;;2.05;1.88;;;27.30;35.50;;;;;;3575307;40;20382;-70
2021/06/26 11:13:29;;;;;;;2.25;2.00;;;27.30;35.80;;;;;;3576624;40;20402;-69
2021/06/26 11:16:09;;;;;;;2.28;2.00;;;27.30;34.90;;;;;;3577682;40;20033;-69
2021/06/26 11:18:35;;;;;;;2.42;1.88;;;27.50;35.80;;;;;;3561497;40;20070;-69
2021/06/26 11:21:02;;;;;;;3.75;2.00;;;27.50;35.60;;;;;;3571302;40;20053;-69
2021/06/26 11:23:28;;;;;;;3.95;2.22;;;27.70;35.50;;;;;;3573773;40;20049;-69
2021/06/26 11:26:01;;;;;;;3.78;2.28;;;27.80;34.60;;;;;;3575778;40;20044;-69
2021/06/26 11:28:27;;;;;;;2.30;1.77;;;28.00;34.10;;;;;;3575934;40;20156;-69
2021/06/26 11:31:01;;;;;;;4.15;3.60;;;28.00;35.20;;;;;;3572539;40;20056;-69
2021/06/26 11:33:35;;;;;;;3.30;2.00;;;28.00;34.60;;;;;;3572429;40;20741;-69
2021/06/26 11:36:02;;;;;;;3.08;2.78;;;28.00;33.80;;;;;;3570315;40;20032;-69
2021/06/26 11:38:28;;;;;;;2.30;2.00;;;28.10;34.40;;;;;;3574150;40;20036;-73
2021/06/26 11:41:03;;;;;;;2.67;2.42;;;28.20;34.50;;;;;;3576688;40;20047;-71
2021/06/26 11:43:29;;;;;;;3.13;2.33;;;28.30;35.30;;;;;;3575341;40;20029;-73
2021/06/26 11:45:55;;;;;;;2.53;1.60;;;28.20;32.40;;;;;;3573813;40;20061;-73
2021/06/26 11:48:21;;;;;;;2.90;1.70;;;28.00;33.80;;;;;;3562819;40;20029;-68
2021/06/26 11:50:51;;;;;;;1.80;1.70;;;27.90;32.30;;;;;;3575982;40;20582;-70
2021/06/26 11:53:21;;;;;;;1.52;1.42;;;27.70;33.20;;;;;;3579574;40;20040;-66
2021/06/26 11:56:03;;;;;;;2.50;2.30;;;27.70;33.50;;;;;;3578322;40;20028;-70
2021/06/26 11:58:47;;;;;;;2.05;1.75;;;27.60;35.50;;;;;;3575945;40;20044;-68
2021/06/26 12:01:14;;;;;;;5.47;2.53;;;27.70;33.80;;;;;;3575669;40;20033;-71
2021/06/26 12:03:42;;;;;;;4.13;2.15;;;27.60;35.30;;;;;;3576178;40;20044;-71
2021/06/26 12:06:12;;;;;;;2.67;1.50;;;27.40;35.80;;;;;;3568352;40;20023;-71
2021/06/26 12:08:48;;;;;;;5.38;3.22;;;27.50;34.50;;;;;;3576424;40;20446;-69
2021/06/26 12:11:19;;;;;;;3.22;2.30;;;27.30;35.90;;;;;;3576685;40;20044;-71
2021/06/26 12:13:47;;;;;;;5.65;4.07;;;27.20;36.20;;;;;;3577551;40;20036;-71
2021/06/26 12:16:14;;;;;;;3.45;2.90;;;27.00;37.20;;;;;;3578262;40;20047;-71
2021/06/26 12:18:54;;;;;;;6.75;4.30;;;26.80;36.80;;;;;;3576013;40;20350;-71
2021/06/26 12:21:25;;;;;;;4.03;3.50;;;26.60;37.50;;;;;;3575418;40;20032;-70
2021/06/26 12:23:52;;;;;;;4.95;2.70;;;26.40;37.50;;;;;;3565355;40;20129;-71
2021/06/26 12:26:21;;;;;;;1.85;1.75;;;26.30;37.60;;;;;;3574889;40;20021;-70
2021/06/26 12:28:47;;;;;;;3.28;2.17;;;26.30;36.40;;;;;;3575801;40;20779;-70
2021/06/26 12:31:13;;;;;;;2.03;1.83;;;26.40;36.10;;;;;;3565589;40;20162;-70
2021/06/26 12:33:39;;;;;;;1.63;1.48;;;26.50;34.90;;;;;;3572988;40;20647;-70
2021/06/26 12:36:16;;;;;;;1.80;1.58;;;26.70;34.80;;;;;;3573772;40;20033;-70
2021/06/26 12:38:42;;;;;;;1.50;1.40;;;26.80;34.80;;;;;;3576615;40;20441;-70
2021/06/26 12:41:17;;;;;;;2.55;1.70;;;27.00;34.60;;;;;;3568688;40;20032;-69
2021/06/26 12:43:43;;;;;;;1.65;1.55;;;27.00;36.20;;;;;;3574910;40;20599;-70
2021/06/26 12:46:09;;;;;;;3.58;1.60;;;27.10;35.60;;;;;;3572162;40;20028;-70
2021/06/26 12:48:42;;;;;;;1.88;1.63;;;27.30;36.20;;;;;;3572658;40;20790;-71